createdAt,value
2023-04-27T00:04:28.328Z,69.30
2023-04-27T00:09:30.761Z,69.10
2023-04-27T00:14:34.434Z,69.50
2023-04-27T00:19:36.748Z,69.50
2023-04-27T00:24:38.962Z,69.20
2023-04-27T00:29:42.512Z,69.10
2023-04-27T00:34:44.706Z,69.20
2023-04-27T00:39:46.858Z,69.10
2023-04-27T00:44:50.398Z,69.10
2023-04-27T00:49:52.539Z,69.40
2023-04-27T00:54:57.928Z,69.40
2023-04-27T01:00:02.340Z,70.10
2023-04-27T01:05:04.960Z,70.20
2023-04-27T01:10:08.689Z,70.10
2023-04-27T01:15:12.666Z,70.20
2023-04-27T01:20:14.779Z,70.70
2023-04-27T01:25:18.501Z,70.70
2023-04-27T01:30:20.756Z,71.00
2023-04-27T01:35:22.968Z,70.60
2023-04-27T01:40:26.510Z,70.20
2023-04-27T01:45:28.755Z,71.20
2023-04-27T01:50:30.864Z,70.40
2023-04-27T01:55:34.432Z,70.80
2023-04-27T02:00:36.612Z,71.30
2023-04-27T02:05:38.812Z,71.20
2023-04-27T02:10:42.691Z,71.40
2023-04-27T02:15:44.910Z,71.60
2023-04-27T02:20:47.078Z,71.70
2023-04-27T02:25:50.642Z,71.80
2023-04-27T02:30:52.804Z,72.40
2023-04-27T02:35:54.999Z,72.50
2023-04-27T02:40:58.510Z,72.60
2023-04-27T02:46:02.922Z,72.80
2023-04-27T02:51:05.576Z,73.10
2023-04-27T02:56:09.059Z,73.10
2023-04-27T03:01:11.320Z,73.50
2023-04-27T03:06:13.638Z,73.60
2023-04-27T03:11:17.294Z,73.90
2023-04-27T03:16:19.473Z,74.20
2023-04-27T03:21:21.724Z,74.10
2023-04-27T03:26:25.359Z,74.00
2023-04-27T03:31:27.547Z,74.00
2023-04-27T03:36:29.770Z,73.60
2023-04-27T03:41:33.407Z,74.20
2023-04-27T03:46:35.830Z,73.50
2023-04-27T03:51:38.059Z,73.30
2023-04-27T03:56:41.717Z,73.40
2023-04-27T04:01:44.004Z,73.60
2023-04-27T04:06:46.174Z,73.60
2023-04-27T04:11:49.718Z,73.70
2023-04-27T04:16:51.810Z,73.80
2023-04-27T04:21:53.934Z,73.90
2023-04-27T04:26:57.506Z,74.10
2023-04-27T04:31:59.597Z,74.40
2023-04-27T04:37:01.745Z,74.50
2023-04-27T04:42:05.373Z,75.10
2023-04-27T04:47:07.534Z,76.10
2023-04-27T04:52:09.701Z,76.50
2023-04-27T04:57:13.316Z,76.70
2023-04-27T05:07:44.045Z,76.10
2023-04-27T05:13:20.353Z,75.20
2023-04-27T05:18:22.932Z,74.20
2023-04-27T05:23:25.709Z,73.50
2023-04-27T05:28:29.981Z,72.70
2023-04-27T05:33:32.603Z,71.60
2023-04-27T05:38:35.036Z,71.00
2023-04-27T05:43:39.369Z,70.40
2023-04-27T05:48:42.136Z,69.40
2023-04-27T05:53:44.631Z,68.80
2023-04-27T05:58:49.032Z,68.00
2023-04-27T06:03:51.692Z,64.60
2023-04-27T06:08:54.324Z,63.10
2023-04-27T06:14:00.166Z,63.10
2023-04-27T06:19:03.632Z,62.00
2023-04-27T06:30:18.484Z,64.20
2023-04-27T06:35:22.230Z,64.40
2023-04-27T06:40:24.897Z,64.40
2023-04-27T06:45:28.802Z,63.10
2023-04-27T06:50:31.034Z,61.10
2023-04-27T06:55:33.189Z,59.20
2023-04-27T07:00:36.928Z,57.90
2023-04-27T07:05:39.140Z,57.20
2023-04-27T07:10:41.283Z,57.70
2023-04-27T07:15:45.019Z,57.00
2023-04-27T07:20:47.259Z,55.50
2023-04-27T07:25:49.507Z,52.70
2023-04-27T07:30:53.143Z,51.30
2023-04-27T07:35:55.498Z,51.30
2023-04-27T07:41:01.181Z,52.20
2023-04-27T07:46:05.172Z,52.50
2023-04-27T07:51:07.388Z,54.30
2023-04-27T07:56:09.677Z,55.60
2023-04-27T08:01:13.499Z,55.00
2023-04-27T08:06:16.172Z,53.20
2023-04-27T08:11:18.608Z,52.50
2023-04-27T08:16:26.344Z,51.30
2023-04-27T08:21:28.739Z,48.40
2023-04-27T08:26:31.031Z,47.30
2023-04-27T08:31:34.840Z,47.60
2023-04-27T08:36:37.227Z,47.50
2023-04-27T08:41:42.800Z,47.40
2023-04-27T08:46:46.580Z,44.30
2023-04-27T08:51:49.144Z,43.50
2023-04-27T08:56:51.385Z,44.20
2023-04-27T09:01:55.022Z,43.70
2023-04-27T09:06:57.264Z,42.30
2023-04-27T09:11:59.479Z,43.20
2023-04-27T09:17:03.194Z,42.60
2023-04-27T09:22:07.284Z,42.10
2023-04-27T09:27:09.496Z,41.80
2023-04-27T09:32:17.346Z,41.80
2023-04-27T09:37:20.123Z,40.80
2023-04-27T09:42:22.587Z,41.00
2023-04-27T09:47:27.298Z,39.30
2023-04-27T09:52:29.691Z,39.40
2023-04-27T09:57:37.640Z,39.80
2023-04-27T10:02:53.932Z,40.40
2023-04-27T10:07:56.619Z,41.00
2023-04-27T10:13:02.099Z,42.10
2023-04-27T10:18:06.520Z,42.50
2023-04-27T10:23:08.827Z,42.90
2023-04-27T10:28:17.534Z,43.60
2023-04-27T10:33:23.185Z,44.00
2023-04-27T10:38:29.347Z,44.50
2023-04-27T10:43:35.712Z,44.70
2023-04-27T10:48:39.956Z,44.80
2023-04-27T10:53:42.334Z,44.60
2023-04-27T10:58:48.730Z,44.70
2023-04-27T11:03:57.257Z,45.10
2023-04-27T11:08:59.747Z,44.90
2023-04-27T11:14:02.093Z,45.00
2023-04-27T11:19:08.878Z,45.10
2023-04-27T11:24:12.649Z,45.30
2023-04-27T11:29:16.657Z,45.50
2023-04-27T11:34:22.729Z,45.60
2023-04-27T11:39:27.853Z,45.70
2023-04-27T11:44:30.117Z,46.10
2023-04-27T11:49:33.953Z,46.30
2023-04-27T11:54:37.956Z,46.40
2023-04-27T11:59:40.184Z,46.30
2023-04-27T12:04:43.948Z,46.70
2023-04-27T12:09:46.763Z,46.40
2023-04-27T12:14:49.255Z,46.60
2023-04-27T12:19:52.961Z,46.90
2023-04-27T12:24:55.178Z,46.90
2023-04-27T12:29:57.342Z,47.00
2023-04-27T12:35:00.910Z,47.00
2023-04-27T12:40:03.267Z,47.30
2023-04-27T12:45:06.842Z,47.10
2023-04-27T12:50:10.902Z,46.90
2023-04-27T12:55:24.701Z,46.70
2023-04-27T13:00:34.219Z,46.70
2023-04-27T13:05:37.944Z,46.70
2023-04-27T13:10:40.428Z,46.50
2023-04-27T13:15:43.104Z,46.20
2023-04-27T13:20:48.654Z,46.00
2023-04-27T13:25:50.917Z,45.80
2023-04-27T13:30:53.412Z,45.80
2023-04-27T13:35:57.108Z,45.60
2023-04-27T13:40:59.387Z,45.50
2023-04-27T13:46:02.252Z,45.50
2023-04-27T13:51:06.001Z,45.50
2023-04-27T13:56:08.331Z,45.40
2023-04-27T14:01:10.765Z,45.50
2023-04-27T14:06:15.849Z,45.10
2023-04-27T14:11:18.176Z,45.10
2023-04-27T14:16:20.477Z,45.20
2023-04-27T14:21:24.850Z,45.20
2023-04-27T14:26:27.199Z,45.00
2023-04-27T14:31:29.571Z,44.40
2023-04-27T14:36:33.433Z,45.00
2023-04-27T14:41:35.972Z,45.10
2023-04-27T14:46:38.207Z,44.90
2023-04-27T14:51:44.592Z,44.90
2023-04-27T14:56:47.176Z,44.80
2023-04-27T15:01:49.353Z,44.90
2023-04-27T15:06:53.910Z,44.60
2023-04-27T15:11:56.118Z,44.70
2023-04-27T15:16:58.382Z,45.10
2023-04-27T15:22:01.965Z,44.80
2023-04-27T15:27:04.984Z,45.30
2023-04-27T15:32:07.206Z,44.40
2023-04-27T15:37:12.491Z,44.70
2023-04-27T15:42:14.755Z,44.50
2023-04-27T15:47:16.967Z,44.60
2023-04-27T15:52:20.650Z,44.60
2023-04-27T15:57:22.935Z,44.90
2023-04-27T16:02:26.202Z,44.80
2023-04-27T16:07:29.847Z,44.60
2023-04-27T16:12:32.119Z,44.50
2023-04-27T16:17:35.198Z,44.50
2023-04-27T16:22:38.920Z,45.30
2023-04-27T16:27:41.192Z,46.10
2023-04-27T16:32:43.510Z,46.50
2023-04-27T16:37:47.123Z,46.80
2023-04-27T16:42:49.436Z,47.00
2023-04-27T16:47:51.668Z,47.10
2023-04-27T16:52:55.588Z,47.20
2023-04-27T16:57:57.710Z,47.40
2023-04-27T17:02:59.923Z,47.70
2023-04-27T17:08:05.086Z,47.80
2023-04-27T17:13:08.467Z,48.00
2023-04-27T17:18:10.654Z,48.20
2023-04-27T17:23:14.259Z,48.30
2023-04-27T17:28:16.389Z,48.50
2023-04-27T17:33:18.571Z,48.60
2023-04-27T17:38:22.200Z,48.90
2023-04-27T17:43:24.458Z,49.20
2023-04-27T17:48:26.747Z,49.20
2023-04-27T17:53:30.453Z,49.40
2023-04-27T17:58:32.678Z,49.70
2023-04-27T18:03:34.936Z,49.70
2023-04-27T18:08:38.607Z,49.80
2023-04-27T18:13:40.867Z,50.00
2023-04-27T18:18:43.010Z,50.10
2023-04-27T18:23:46.681Z,50.20
2023-04-27T18:28:48.869Z,50.50
2023-04-27T18:33:51.053Z,50.60
2023-04-27T18:38:55.400Z,50.90
2023-04-27T18:44:03.592Z,51.00
2023-04-27T18:49:05.761Z,51.20
2023-04-27T18:54:09.493Z,51.20
2023-04-27T18:59:11.902Z,51.50
2023-04-27T19:04:14.358Z,51.70
2023-04-27T19:09:18.323Z,52.00
2023-04-27T19:14:20.557Z,52.30
2023-04-27T19:19:23.773Z,54.20
2023-04-27T19:24:27.546Z,53.50
2023-04-27T19:29:29.815Z,54.20
2023-04-27T19:34:31.910Z,54.60
2023-04-27T19:39:35.780Z,55.40
2023-04-27T19:44:38.754Z,55.80
2023-04-27T19:49:40.896Z,56.00
2023-04-27T19:54:44.575Z,56.30
2023-04-27T19:59:46.756Z,56.50
2023-04-27T20:04:49.060Z,57.70
2023-04-27T20:09:52.809Z,59.70
2023-04-27T20:14:55.325Z,58.70
2023-04-27T20:19:57.473Z,59.40
2023-04-27T20:25:02.928Z,58.90
2023-04-27T20:30:06.177Z,60.20
2023-04-27T20:35:08.669Z,59.60
2023-04-27T20:40:14.235Z,60.70
2023-04-27T20:45:17.068Z,62.40
2023-04-27T20:50:19.286Z,61.00
2023-04-27T20:55:23.163Z,62.80
2023-04-27T21:00:25.526Z,64.80
2023-04-27T21:05:28.682Z,62.80
2023-04-27T21:10:33.748Z,62.30
2023-04-27T21:15:35.906Z,62.60
2023-04-27T21:20:38.078Z,62.20
2023-04-27T21:25:43.974Z,62.90
2023-04-27T21:30:46.035Z,62.80
2023-04-27T21:35:48.241Z,63.40
2023-04-27T21:40:51.770Z,65.40
2023-04-27T21:45:53.937Z,63.60
2023-04-27T21:50:56.018Z,63.60
2023-04-27T21:56:00.031Z,65.50
2023-04-27T22:01:02.243Z,67.60
2023-04-27T22:06:04.670Z,64.90
2023-04-27T22:11:08.299Z,64.20
2023-04-27T22:16:13.051Z,64.50
2023-04-27T22:21:16.188Z,67.30
2023-04-27T22:26:19.770Z,69.40
2023-04-27T22:31:22.002Z,71.20
2023-04-27T22:36:24.191Z,71.50
2023-04-27T22:41:27.821Z,74.00
2023-04-27T22:46:30.006Z,72.90
2023-04-27T22:51:32.224Z,75.20
2023-04-27T22:56:35.861Z,77.00
2023-04-27T23:01:38.116Z,75.80
2023-04-27T23:06:40.420Z,73.30
2023-04-27T23:11:44.101Z,73.80
2023-04-27T23:16:46.305Z,75.60
2023-04-27T23:21:48.479Z,75.70
2023-04-27T23:26:52.031Z,77.70
2023-04-27T23:31:54.184Z,77.10
2023-04-27T23:36:56.300Z,73.50
2023-04-27T23:41:59.898Z,75.50
2023-04-27T23:47:02.070Z,76.60
2023-04-27T23:52:04.421Z,79.80
2023-04-27T23:57:07.951Z,78.30
